sensor_id;sensor_type;location;lat;lon;timestamp;pressure;altitude;pressure_sealevel;temperature;humidity
31096;BME280;17749;51.962;8.560;2022-11-25T06:00:28;99732.63;;;5.84;100.00
31096;BME280;17749;51.962;8.560;2022-11-25T06:03:00;99722.88;;;5.86;100.00
31096;BME280;17749;51.962;8.560;2022-11-25T06:05:27;99732.41;;;5.91;100.00
31096;BME280;17749;51.962;8.560;2022-11-25T06:07:54;99735.94;;;5.93;100.00
31096;BME280;17749;51.962;8.560;2022-11-25T06:10:21;99738.38;;;6.01;100.00
31096;BME280;17749;51.962;8.560;2022-11-25T06:12:49;99726.06;;;6.00;100.00
31096;BME280;17749;51.962;8.560;2022-11-25T06:15:16;99740.91;;;6.04;100.00
31096;BME280;17749;51.962;8.560;2022-11-25T06:17:43;99740.78;;;6.10;100.00
31096;BME280;17749;51.962;8.560;2022-11-25T06:20:16;99739.09;;;6.08;100.00
31096;BME280;17749;51.962;8.560;2022-11-25T06:22:44;99745.22;;;6.08;100.00
31096;BME280;17749;51.962;8.560;2022-11-25T06:25:11;99753.06;;;6.11;100.00
31096;BME280;17749;51.962;8.560;2022-11-25T06:27:40;99753.19;;;6.07;100.00
31096;BME280;17749;51.962;8.560;2022-11-25T06:30:29;99758.38;;;6.10;100.00
31096;BME280;17749;51.962;8.560;2022-11-25T06:33:11;99761.84;;;6.13;100.00
31096;BME280;17749;51.962;8.560;2022-11-25T06:35:42;99757.44;;;6.12;100.00
31096;BME280;17749;51.962;8.560;2022-11-25T06:38:09;99750.34;;;6.14;100.00
31096;BME280;17749;51.962;8.560;2022-11-25T06:40:36;99750.34;;;6.14;100.00
31096;BME280;17749;51.962;8.560;2022-11-25T06:43:03;99757.34;;;6.15;100.00
31096;BME280;17749;51.962;8.560;2022-11-25T06:45:30;99759.88;;;6.20;100.00
31096;BME280;17749;51.962;8.560;2022-11-25T06:47:57;99759.88;;;6.20;100.00
31096;BME280;17749;51.962;8.560;2022-11-25T06:50:24;99751.91;;;6.22;100.00
31096;BME280;17749;51.962;8.560;2022-11-25T06:52:51;99763.31;;;6.24;100.00
31096;BME280;17749;51.962;8.560;2022-11-25T06:55:18;99763.25;;;6.25;100.00
31096;BME280;17749;51.962;8.560;2022-11-25T06:57:45;99771.09;;;6.28;100.00
31096;BME280;17749;51.962;8.560;2022-11-25T07:00:12;99779.00;;;6.30;100.00
31096;BME280;17749;51.962;8.560;2022-11-25T07:02:39;99778.06;;;6.31;100.00
31096;BME280;17749;51.962;8.560;2022-11-25T07:05:14;99785.06;;;6.33;100.00
31096;BME280;17749;51.962;8.560;2022-11-25T07:07:41;99784.16;;;6.34;100.00
31096;BME280;17749;51.962;8.560;2022-11-25T07:10:08;99785.03;;;6.35;100.00
31096;BME280;17749;51.962;8.560;2022-11-25T07:12:35;99784.97;;;6.36;100.00
31096;BME280;17749;51.962;8.560;2022-11-25T07:15:02;99791.91;;;6.42;100.00
31096;BME280;17749;51.962;8.560;2022-11-25T07:17:29;99794.59;;;6.39;100.00
31096;BME280;17749;51.962;8.560;2022-11-25T07:19:55;99791.94;;;6.39;100.00
31096;BME280;17749;51.962;8.560;2022-11-25T07:22:22;99799.81;;;6.42;100.00
31096;BME280;17749;51.962;8.560;2022-11-25T07:24:49;99794.34;;;6.48;100.00
31096;BME280;17749;51.962;8.560;2022-11-25T07:27:16;99804.97;;;6.47;100.00
31096;BME280;17749;51.962;8.560;2022-11-25T07:29:43;99804.09;;;6.46;100.00
31096;BME280;17749;51.962;8.560;2022-11-25T07:32:32;99812.97;;;6.45;100.00
31096;BME280;17749;51.962;8.560;2022-11-25T07:34:59;99813.81;;;6.46;100.00
31096;BME280;17749;51.962;8.560;2022-11-25T07:37:26;99823.44;;;6.48;100.00
31096;BME280;17749;51.962;8.560;2022-11-25T07:39:53;99821.63;;;6.50;100.00
31096;BME280;17749;51.962;8.560;2022-11-25T07:42:20;99830.31;;;6.55;100.00
31096;BME280;17749;51.962;8.560;2022-11-25T07:44:48;99829.31;;;6.59;100.00
31096;BME280;17749;51.962;8.560;2022-11-25T07:47:38;99831.22;;;6.54;100.00
31096;BME280;17749;51.962;8.560;2022-11-25T07:50:06;99837.25;;;6.59;100.00
31096;BME280;17749;51.962;8.560;2022-11-25T07:52:36;99839.75;;;6.64;100.00
31096;BME280;17749;51.962;8.560;2022-11-25T07:55:03;99846.00;;;6.62;100.00
31096;BME280;17749;51.962;8.560;2022-11-25T07:57:30;99848.66;;;6.62;100.00
31096;BME280;17749;51.962;8.560;2022-11-25T07:59:57;99851.22;;;6.65;100.00
31096;BME280;17749;51.962;8.560;2022-11-25T08:02:24;99854.78;;;6.64;100.00
31096;BME280;17749;51.962;8.560;2022-11-25T08:04:51;99849.41;;;6.67;100.00
31096;BME280;17749;51.962;8.560;2022-11-25T08:07:18;99858.19;;;6.67;100.00
31096;BME280;17749;51.962;8.560;2022-11-25T08:09:45;99860.84;;;6.67;100.00
31096;BME280;17749;51.962;8.560;2022-11-25T08:12:12;99865.25;;;6.68;100.00
31096;BME280;17749;51.962;8.560;2022-11-25T08:14:38;99859.88;;;6.70;100.00
31096;BME280;17749;51.962;8.560;2022-11-25T08:17:05;99859.88;;;6.70;100.00
31096;BME280;17749;51.962;8.560;2022-11-25T08:19:32;99871.34;;;6.70;100.00
31096;BME280;17749;51.962;8.560;2022-11-25T08:22:00;99866.94;;;6.71;100.00
31096;BME280;17749;51.962;8.560;2022-11-25T08:24:26;99875.63;;;6.76;100.00
31096;BME280;17749;51.962;8.560;2022-11-25T08:26:53;99874.72;;;6.75;100.00
31096;BME280;17749;51.962;8.560;2022-11-25T08:29:23;99880.06;;;6.74;100.00
31096;BME280;17749;51.962;8.560;2022-11-25T08:31:50;99875.63;;;6.76;100.00
31096;BME280;17749;51.962;8.560;2022-11-25T08:34:20;99880.91;;;6.76;100.00
31096;BME280;17749;51.962;8.560;2022-11-25T08:36:50;99887.84;;;6.80;100.00
31096;BME280;17749;51.962;8.560;2022-11-25T08:39:18;99898.31;;;6.83;100.00
31096;BME280;17749;51.962;8.560;2022-11-25T08:42:06;99889.50;;;6.84;100.00
31096;BME280;17749;51.962;8.560;2022-11-25T08:44:34;99904.44;;;6.85;100.00
31096;BME280;17749;51.962;8.560;2022-11-25T08:47:01;99903.47;;;6.89;100.00
31096;BME280;17749;51.962;8.560;2022-11-25T08:49:28;99904.28;;;6.91;100.00
31096;BME280;17749;51.962;8.560;2022-11-25T08:52:01;99911.31;;;6.92;100.00
31096;BME280;17749;51.962;8.560;2022-11-25T08:54:28;99914.72;;;6.97;100.00
31096;BME280;17749;51.962;8.560;2022-11-25T08:56:55;99911.00;;;7.03;100.00
31096;BME280;17749;51.962;8.560;2022-11-25T08:59:22;99915.34;;;7.06;100.00
31096;BME280;17749;51.962;8.560;2022-11-25T09:01:50;99912.56;;;7.10;100.00
31096;BME280;17749;51.962;8.560;2022-11-25T09:04:17;99914.28;;;7.13;100.00
31096;BME280;17749;51.962;8.560;2022-11-25T09:06:44;99919.50;;;7.14;100.00
31096;BME280;17749;51.962;8.560;2022-11-25T09:09:11;99926.47;;;7.18;100.00
31096;BME280;17749;51.962;8.560;2022-11-25T09:11:38;99927.22;;;7.22;100.00
31096;BME280;17749;51.962;8.560;2022-11-25T09:14:05;99921.84;;;7.25;100.00
31096;BME280;17749;51.962;8.560;2022-11-25T09:16:32;99927.03;;;7.28;100.00
31096;BME280;17749;51.962;8.560;2022-11-25T09:18:59;99934.09;;;7.29;100.00
31096;BME280;17749;51.962;8.560;2022-11-25T09:21:26;99937.56;;;7.31;100.00
31096;BME280;17749;51.962;8.560;2022-11-25T09:23:53;99926.88;;;7.34;100.00
31096;BME280;17749;51.962;8.560;2022-11-25T09:26:23;99935.69;;;7.35;100.00
31096;BME280;17749;51.962;8.560;2022-11-25T09:28:51;99936.50;;;7.37;100.00
31096;BME280;17749;51.962;8.560;2022-11-25T09:31:19;99944.34;;;7.41;100.00
31096;BME280;17749;51.962;8.560;2022-11-25T09:33:46;99951.34;;;7.42;100.00
31096;BME280;17749;51.962;8.560;2022-11-25T09:36:15;99946.91;;;7.43;100.00
31096;BME280;17749;51.962;8.560;2022-11-25T09:38:42;99950.41;;;7.45;100.00
31096;BME280;17749;51.962;8.560;2022-11-25T09:47:59;99964.41;;;7.49;100.00
31096;BME280;17749;51.962;8.560;2022-11-25T09:53:41;99959.94;;;7.51;100.00
31096;BME280;17749;51.962;8.560;2022-11-25T09:56:40;99946.59;;;7.54;100.00
31096;BME280;17749;51.962;8.560;2022-11-25T09:59:12;99959.69;;;7.60;100.00
31096;BME280;17749;51.962;8.560;2022-11-25T10:01:54;99956.97;;;7.61;100.00
31096;BME280;17749;51.962;8.560;2022-11-25T10:04:27;99965.56;;;7.69;100.00
31096;BME280;17749;51.962;8.560;2022-11-25T10:06:58;99962.88;;;7.71;100.00
31096;BME280;17749;51.962;8.560;2022-11-25T10:09:29;99975.03;;;7.78;100.00
31096;BME280;17749;51.962;8.560;2022-11-25T10:12:17;99967.78;;;7.83;100.00
31096;BME280;17749;51.962;8.560;2022-11-25T10:14:47;99974.69;;;7.89;100.00
31096;BME280;17749;51.962;8.560;2022-11-25T10:17:37;99963.88;;;7.95;100.00
31096;BME280;17749;51.962;8.560;2022-11-25T10:20:23;99968.84;;;8.06;100.00
31096;BME280;17749;51.962;8.560;2022-11-25T10:23:00;99972.09;;;8.14;100.00
31096;BME280;17749;51.962;8.560;2022-11-25T10:25:30;99978.13;;;8.19;100.00
31096;BME280;17749;51.962;8.560;2022-11-25T10:28:03;99985.03;;;8.25;100.00
31096;BME280;17749;51.962;8.560;2022-11-25T10:30:43;99978.75;;;8.27;100.00
31096;BME280;17749;51.962;8.560;2022-11-25T10:33:26;99984.78;;;8.32;100.00
31096;BME280;17749;51.962;8.560;2022-11-25T10:38:33;99988.16;;;8.39;100.00
31096;BME280;17749;51.962;8.560;2022-11-25T10:41:02;99978.19;;;8.46;100.00
31096;BME280;17749;51.962;8.560;2022-11-25T10:43:30;99988.78;;;8.46;100.00
31096;BME280;17749;51.962;8.560;2022-11-25T10:56:45;99995.13;;;8.42;100.00
31096;BME280;17749;51.962;8.560;2022-11-25T11:02:06;99989.69;;;8.46;100.00
31096;BME280;17749;51.962;8.560;2022-11-25T11:07:29;99997.47;;;8.51;100.00
31096;BME280;17749;51.962;8.560;2022-11-25T11:13:34;99990.34;;;8.53;100.00
31096;BME280;17749;51.962;8.560;2022-11-25T11:18:28;99993.28;;;8.70;100.00
31096;BME280;17749;51.962;8.560;2022-11-25T11:20:55;99991.34;;;8.75;100.00
31096;BME280;17749;51.962;8.560;2022-11-25T11:23:23;99992.97;;;8.80;100.00
31096;BME280;17749;51.962;8.560;2022-11-25T11:26:03;99998.94;;;8.86;100.00
31096;BME280;17749;51.962;8.560;2022-11-25T11:53:20;100030.25;;;9.27;100.00
31096;BME280;17749;51.962;8.560;2022-11-25T12:06:58;100038.38;;;9.47;100.00
31096;BME280;17749;51.962;8.560;2022-11-25T12:09:31;100042.75;;;9.48;100.00
31096;BME280;17749;51.962;8.560;2022-11-25T12:12:04;100047.06;;;9.52;100.00
31096;BME280;17749;51.962;8.560;2022-11-25T12:14:45;100044.25;;;9.57;100.00
31096;BME280;17749;51.962;8.560;2022-11-25T12:17:34;100044.97;;;9.60;100.00
31096;BME280;17749;51.962;8.560;2022-11-25T12:23:23;100053.34;;;9.75;100.00
31096;BME280;17749;51.962;8.560;2022-11-25T12:25:57;100051.25;;;9.83;100.00
31096;BME280;17749;51.962;8.560;2022-11-25T12:28:38;100052.69;;;9.92;100.00
31096;BME280;17749;51.962;8.560;2022-11-25T12:33:49;100061.19;;;10.01;100.00
31096;BME280;17749;51.962;8.560;2022-11-25T12:36:35;100060.38;;;9.99;100.00
31096;BME280;17749;51.962;8.560;2022-11-25T12:42:04;100063.19;;;9.95;100.00
31096;BME280;17749;51.962;8.560;2022-11-25T12:45:08;100066.84;;;9.92;100.00
31096;BME280;17749;51.962;8.560;2022-11-25T12:47:37;100066.72;;;9.95;100.00
31096;BME280;17749;51.962;8.560;2022-11-25T12:50:05;100069.38;;;9.95;100.00
31096;BME280;17749;51.962;8.560;2022-11-25T12:55:23;100070.19;;;9.97;100.00
31096;BME280;17749;51.962;8.560;2022-11-25T13:03:43;100098.63;;;9.95;100.00
31096;BME280;17749;51.962;8.560;2022-11-25T13:15:15;100107.69;;;9.91;100.00
31096;BME280;17749;51.962;8.560;2022-11-25T13:17:40;100104.94;;;9.93;100.00
31096;BME280;17749;51.962;8.560;2022-11-25T13:25:41;100112.13;;;9.91;100.00
31096;BME280;17749;51.962;8.560;2022-11-25T13:28:29;100114.84;;;9.89;100.00
31096;BME280;17749;51.962;8.560;2022-11-25T13:36:17;100115.78;;;9.88;100.00
31096;BME280;17749;51.962;8.560;2022-11-25T13:43:59;100122.13;;;9.84;100.00
31096;BME280;17749;51.962;8.560;2022-11-25T13:49:06;100136.47;;;9.80;100.00
31096;BME280;17749;51.962;8.560;2022-11-25T13:51:51;100137.38;;;9.79;100.00
31096;BME280;17749;51.962;8.560;2022-11-25T13:54:22;100143.63;;;9.78;100.00
31096;BME280;17749;51.962;8.560;2022-11-25T13:57:15;100144.53;;;9.77;100.00
31096;BME280;17749;51.962;8.560;2022-11-25T14:07:51;100162.56;;;9.69;100.00
31096;BME280;17749;51.962;8.560;2022-11-25T14:23:43;100175.34;;;9.59;100.00
31096;BME280;17749;51.962;8.560;2022-11-25T14:26:24;100182.59;;;9.54;100.00
31096;BME280;17749;51.962;8.560;2022-11-25T14:31:59;100180.09;;;9.49;100.00
31096;BME280;17749;51.962;8.560;2022-11-25T14:34:47;100190.72;;;9.49;100.00
31096;BME280;17749;51.962;8.560;2022-11-25T14:37:20;100191.81;;;9.43;100.00
31096;BME280;17749;51.962;8.560;2022-11-25T14:39:55;100193.56;;;9.43;100.00
31096;BME280;17749;51.962;8.560;2022-11-25T14:42:26;100198.13;;;9.39;100.00
31096;BME280;17749;51.962;8.560;2022-11-25T14:44:58;100203.53;;;9.38;100.00
31096;BME280;17749;51.962;8.560;2022-11-25T14:47:27;100202.72;;;9.34;100.00
31096;BME280;17749;51.962;8.560;2022-11-25T14:49:59;100205.34;;;9.36;100.00
31096;BME280;17749;51.962;8.560;2022-11-25T14:52:46;100214.28;;;9.33;100.00
31096;BME280;17749;51.962;8.560;2022-11-25T14:55:27;100220.34;;;9.38;100.00
31096;BME280;17749;51.962;8.560;2022-11-25T14:57:55;100220.44;;;9.35;100.00
31096;BME280;17749;51.962;8.560;2022-11-25T15:00:23;100224.13;;;9.30;100.00
31096;BME280;17749;51.962;8.560;2022-11-25T15:02:57;100226.81;;;9.30;100.00
31096;BME280;17749;51.962;8.560;2022-11-25T15:05:37;100226.81;;;9.30;100.00
31096;BME280;17749;51.962;8.560;2022-11-25T15:08:10;100226.06;;;9.25;100.00
31096;BME280;17749;51.962;8.560;2022-11-25T15:13:33;100240.44;;;9.19;100.00
31096;BME280;17749;51.962;8.560;2022-11-25T15:16:07;100242.19;;;9.20;100.00
31096;BME280;17749;51.962;8.560;2022-11-25T15:18:37;100239.56;;;9.18;100.00
31096;BME280;17749;51.962;8.560;2022-11-25T15:21:05;100248.47;;;9.17;100.00
31096;BME280;17749;51.962;8.560;2022-11-25T15:23:36;100244.06;;;9.16;100.00
31096;BME280;17749;51.962;8.560;2022-11-25T15:26:17;100252.09;;;9.15;100.00
31096;BME280;17749;51.962;8.560;2022-11-25T15:28:46;100255.72;;;9.12;100.00
31096;BME280;17749;51.962;8.560;2022-11-25T15:31:18;100260.19;;;9.12;100.00
31096;BME280;17749;51.962;8.560;2022-11-25T15:33:46;100250.59;;;9.06;100.00
31096;BME280;17749;51.962;8.560;2022-11-25T15:36:22;100249.72;;;9.06;100.00
31096;BME280;17749;51.962;8.560;2022-11-25T15:38:50;100253.44;;;9.00;100.00
31096;BME280;17749;51.962;8.560;2022-11-25T15:41:18;100255.25;;;8.99;100.00
31096;BME280;17749;51.962;8.560;2022-11-25T15:43:51;100256.19;;;8.97;100.00
31096;BME280;17749;51.962;8.560;2022-11-25T15:46:19;100256.19;;;8.97;100.00
31096;BME280;17749;51.962;8.560;2022-11-25T15:48:49;100263.25;;;8.98;100.00
31096;BME280;17749;51.962;8.560;2022-11-25T15:53:58;100266.81;;;8.97;100.00
31096;BME280;17749;51.962;8.560;2022-11-25T15:56:26;100272.34;;;8.91;100.00
31096;BME280;17749;51.962;8.560;2022-11-25T15:58:53;100276.75;;;8.90;100.00
31096;BME280;17749;51.962;8.560;2022-11-25T16:01:28;100281.19;;;8.90;100.00
31096;BME280;17749;51.962;8.560;2022-11-25T16:04:15;100282.16;;;8.87;100.00
31096;BME280;17749;51.962;8.560;2022-11-25T16:06:53;100284.78;;;8.89;100.00
31096;BME280;17749;51.962;8.560;2022-11-25T16:09:22;100294.56;;;8.87;100.00
31096;BME280;17749;51.962;8.560;2022-11-25T16:11:50;100302.53;;;8.87;100.00
31096;BME280;17749;51.962;8.560;2022-11-25T16:14:26;100299.91;;;8.85;100.00
31096;BME280;17749;51.962;8.560;2022-11-25T16:17:00;100309.69;;;8.85;100.00
31096;BME280;17749;51.962;8.560;2022-11-25T16:19:32;100310.59;;;8.84;100.00
31096;BME280;17749;51.962;8.560;2022-11-25T16:22:04;100317.66;;;8.85;100.00
31096;BME280;17749;51.962;8.560;2022-11-25T16:24:34;100315.00;;;8.85;100.00
31096;BME280;17749;51.962;8.560;2022-11-25T16:27:32;100314.16;;;8.83;100.00
31096;BME280;17749;51.962;8.560;2022-11-25T16:32:31;100331.03;;;8.82;100.00
31096;BME280;17749;51.962;8.560;2022-11-25T16:35:18;100326.56;;;8.82;100.00
31096;BME280;17749;51.962;8.560;2022-11-25T16:37:48;100331.03;;;8.82;100.00
31096;BME280;17749;51.962;8.560;2022-11-25T16:40:17;100336.34;;;8.82;100.00
31096;BME280;17749;51.962;8.560;2022-11-25T16:42:46;100354.00;;;8.83;100.00
31096;BME280;17749;51.962;8.560;2022-11-25T16:45:22;100354.09;;;8.80;100.00
31096;BME280;17749;51.962;8.560;2022-11-25T16:47:50;100358.56;;;8.77;100.00
31096;BME280;17749;51.962;8.560;2022-11-25T16:50:18;100358.53;;;8.79;100.00
31096;BME280;17749;51.962;8.560;2022-11-25T16:52:45;100363.88;;;8.77;100.00
31096;BME280;17749;51.962;8.560;2022-11-25T16:55:13;100357.66;;;8.78;100.00
31096;BME280;17749;51.962;8.560;2022-11-25T16:57:40;100370.88;;;8.80;100.00
31096;BME280;17749;51.962;8.560;2022-11-25T17:00:13;100375.41;;;8.78;100.00
31096;BME280;17749;51.962;8.560;2022-11-25T17:02:43;100372.75;;;8.78;100.00
31096;BME280;17749;51.962;8.560;2022-11-25T17:07:47;100377.22;;;8.76;100.00
31096;BME280;17749;51.962;8.560;2022-11-25T17:10:17;100389.63;;;8.75;100.00
31096;BME280;17749;51.962;8.560;2022-11-25T17:12:44;100391.34;;;8.76;100.00
31096;BME280;17749;51.962;8.560;2022-11-25T17:15:18;100394.94;;;8.75;100.00
31096;BME280;17749;51.962;8.560;2022-11-25T17:17:47;100400.25;;;8.75;100.00
31096;BME280;17749;51.962;8.560;2022-11-25T17:20:17;100398.50;;;8.74;100.00
31096;BME280;17749;51.962;8.560;2022-11-25T17:22:44;100407.38;;;8.73;100.00
31096;BME280;17749;51.962;8.560;2022-11-25T17:25:11;100404.72;;;8.73;100.00
31096;BME280;17749;51.962;8.560;2022-11-25T17:27:39;100408.34;;;8.71;100.00
31096;BME280;17749;51.962;8.560;2022-11-25T17:30:21;100412.78;;;8.70;100.00
31096;BME280;17749;51.962;8.560;2022-11-25T17:32:57;100418.13;;;8.69;100.00
31096;BME280;17749;51.962;8.560;2022-11-25T17:35:26;100426.91;;;8.72;100.00
31096;BME280;17749;51.962;8.560;2022-11-25T17:37:53;100421.63;;;8.69;100.00
31096;BME280;17749;51.962;8.560;2022-11-25T17:40:20;100433.22;;;8.67;100.00
31096;BME280;17749;51.962;8.560;2022-11-25T17:42:47;100433.28;;;8.65;100.00
31096;BME280;17749;51.962;8.560;2022-11-25T17:45:18;100434.13;;;8.66;100.00
31096;BME280;17749;51.962;8.560;2022-11-25T17:47:46;100442.13;;;8.64;100.00
31096;BME280;17749;51.962;8.560;2022-11-25T17:50:18;100450.19;;;8.61;100.00
31096;BME280;17749;51.962;8.560;2022-11-25T17:52:46;100453.75;;;8.60;100.00
31096;BME280;17749;51.962;8.560;2022-11-25T17:55:14;100467.94;;;8.59;100.00
31096;BME280;17749;51.962;8.560;2022-11-25T17:57:46;100466.97;;;8.62;100.00
31096;BME280;17749;51.962;8.560;2022-11-25T18:00:19;100478.50;;;8.62;100.00
31096;BME280;17749;51.962;8.560;2022-11-25T18:02:47;100478.50;;;8.62;100.00
31096;BME280;17749;51.962;8.560;2022-11-25T18:05:20;100479.44;;;8.60;100.00
31096;BME280;17749;51.962;8.560;2022-11-25T18:07:48;100486.59;;;8.56;100.00
31096;BME280;17749;51.962;8.560;2022-11-25T18:10:18;100479.59;;;8.53;100.00
31096;BME280;17749;51.962;8.560;2022-11-25T18:12:47;100489.34;;;8.53;100.00
31096;BME280;17749;51.962;8.560;2022-11-25T18:15:18;100493.88;;;8.49;100.00
31096;BME280;17749;51.962;8.560;2022-11-25T18:17:46;100495.69;;;8.47;100.00
31096;BME280;17749;51.962;8.560;2022-11-25T18:20:16;100506.38;;;8.44;100.00
31096;BME280;17749;51.962;8.560;2022-11-25T18:22:43;100505.56;;;8.41;100.00
31096;BME280;17749;51.962;8.560;2022-11-25T18:25:13;100511.78;;;8.38;100.00
31096;BME280;17749;51.962;8.560;2022-11-25T18:27:41;100511.84;;;8.37;100.00
31096;BME280;17749;51.962;8.560;2022-11-25T18:30:18;100523.41;;;8.32;100.00
31096;BME280;17749;51.962;8.560;2022-11-25T18:32:45;100521.72;;;8.30;100.00
31096;BME280;17749;51.962;8.560;2022-11-25T18:35:20;100524.44;;;8.27;100.00
31096;BME280;17749;51.962;8.560;2022-11-25T18:37:47;100523.59;;;8.25;100.00
31096;BME280;17749;51.962;8.560;2022-11-25T18:40:15;100535.13;;;8.25;100.00
31096;BME280;17749;51.962;8.560;2022-11-25T18:42:53;100531.63;;;8.23;100.00
31096;BME280;17749;51.962;8.560;2022-11-25T18:45:24;100533.44;;;8.21;100.00
31096;BME280;17749;51.962;8.560;2022-11-25T18:47:53;100535.22;;;8.19;100.00
31096;BME280;17749;51.962;8.560;2022-11-25T18:50:24;100542.34;;;8.19;100.00
31096;BME280;17749;51.962;8.560;2022-11-25T18:52:52;100545.00;;;8.17;100.00
31096;BME280;17749;51.962;8.560;2022-11-25T18:55:21;100548.59;;;8.16;100.00
31096;BME280;17749;51.962;8.560;2022-11-25T18:57:49;100553.88;;;8.16;100.00
31096;BME280;17749;51.962;8.560;2022-11-25T19:00:22;100566.22;;;8.17;100.00
31096;BME280;17749;51.962;8.560;2022-11-25T19:02:59;100562.75;;;8.15;100.00
31096;BME280;17749;51.962;8.560;2022-11-25T19:05:32;100561.00;;;8.14;100.00
31096;BME280;17749;51.962;8.560;2022-11-25T19:07:59;100568.94;;;8.16;100.00
31096;BME280;17749;51.962;8.560;2022-11-25T19:10:28;100569.81;;;8.16;100.00
31096;BME280;17749;51.962;8.560;2022-11-25T19:12:58;100575.09;;;8.16;100.00
31096;BME280;17749;51.962;8.560;2022-11-25T19:15:27;100580.50;;;8.13;100.00
31096;BME280;17749;51.962;8.560;2022-11-25T19:17:59;100577.78;;;8.15;100.00
31096;BME280;17749;51.962;8.560;2022-11-25T19:20:27;100584.84;;;8.16;100.00
31096;BME280;17749;51.962;8.560;2022-11-25T19:22:56;100589.28;;;8.15;100.00
31096;BME280;17749;51.962;8.560;2022-11-25T19:25:27;100591.94;;;8.15;100.00
31096;BME280;17749;51.962;8.560;2022-11-25T19:27:58;100593.78;;;8.11;100.00
31096;BME280;17749;51.962;8.560;2022-11-25T19:30:29;100594.63;;;8.12;100.00
31096;BME280;17749;51.962;8.560;2022-11-25T19:32:58;100606.16;;;8.12;100.00
31096;BME280;17749;51.962;8.560;2022-11-25T19:35:36;100607.03;;;8.13;100.00
31096;BME280;17749;51.962;8.560;2022-11-25T19:38:14;100615.88;;;8.12;100.00
31096;BME280;17749;51.962;8.560;2022-11-25T19:40:48;100610.56;;;8.12;100.00
31096;BME280;17749;51.962;8.560;2022-11-25T19:43:15;100615.84;;;8.13;100.00
31096;BME280;17749;51.962;8.560;2022-11-25T19:45:42;100621.16;;;8.12;100.00
31096;BME280;17749;51.962;8.560;2022-11-25T19:48:15;100628.25;;;8.13;100.00
31096;BME280;17749;51.962;8.560;2022-11-25T19:50:44;100628.09;;;8.19;100.00
31096;BME280;17749;51.962;8.560;2022-11-25T19:53:18;100634.34;;;8.17;100.00
31096;BME280;17749;51.962;8.560;2022-11-25T19:55:47;100642.38;;;8.13;100.00
31096;BME280;17749;51.962;8.560;2022-11-25T19:58:14;100650.31;;;8.15;100.00
31096;BME280;17749;51.962;8.560;2022-11-25T20:00:42;100656.44;;;8.17;100.00
31096;BME280;17749;51.962;8.560;2022-11-25T20:03:21;100658.28;;;8.15;100.00
31096;BME280;17749;51.962;8.560;2022-11-25T20:05:51;100666.25;;;8.13;100.00
31096;BME280;17749;51.962;8.560;2022-11-25T20:08:25;100674.22;;;8.12;100.00
31096;BME280;17749;51.962;8.560;2022-11-25T20:10:53;100675.94;;;8.15;100.00
31096;BME280;17749;51.962;8.560;2022-11-25T20:13:20;100675.94;;;8.15;100.00
31096;BME280;17749;51.962;8.560;2022-11-25T20:15:49;100677.66;;;8.17;100.00
31096;BME280;17749;51.962;8.560;2022-11-25T20:18:21;100685.63;;;8.17;100.00
31096;BME280;17749;51.962;8.560;2022-11-25T20:20:54;100689.25;;;8.13;100.00
31096;BME280;17749;51.962;8.560;2022-11-25T20:23:38;100696.34;;;8.12;100.00
31096;BME280;17749;51.962;8.560;2022-11-25T20:26:18;100700.72;;;8.15;100.00
31096;BME280;17749;51.962;8.560;2022-11-25T20:28:48;100705.13;;;8.15;100.00
31096;BME280;17749;51.962;8.560;2022-11-25T20:31:15;100709.56;;;8.14;100.00
31096;BME280;17749;51.962;8.560;2022-11-25T20:33:42;100718.44;;;8.13;100.00
31096;BME280;17749;51.962;8.560;2022-11-25T20:36:18;100717.53;;;8.14;100.00
31096;BME280;17749;51.962;8.560;2022-11-25T20:38:52;100714.94;;;8.11;100.00
31096;BME280;17749;51.962;8.560;2022-11-25T20:41:21;100721.97;;;8.12;100.00
31096;BME280;17749;51.962;8.560;2022-11-25T20:43:54;100728.22;;;8.09;100.00
31096;BME280;17749;51.962;8.560;2022-11-25T20:46:24;100725.56;;;8.09;100.00
31096;BME280;17749;51.962;8.560;2022-11-25T20:48:59;100732.66;;;8.09;100.00
31096;BME280;17749;51.962;8.560;2022-11-25T20:51:27;100736.19;;;8.09;100.00
31096;BME280;17749;51.962;8.560;2022-11-25T20:53:56;100738.81;;;8.11;100.00
31096;BME280;17749;51.962;8.560;2022-11-25T20:56:25;100748.50;;;8.12;100.00
31096;BME280;17749;51.962;8.560;2022-11-25T20:58:53;100747.63;;;8.11;100.00
31096;BME280;17749;51.962;8.560;2022-11-25T21:01:20;100753.78;;;8.13;100.00
31096;BME280;17749;51.962;8.560;2022-11-25T21:03:48;100755.59;;;8.13;100.00
31096;BME280;17749;51.962;8.560;2022-11-25T21:06:19;100757.31;;;8.14;100.00
31096;BME280;17749;51.962;8.560;2022-11-25T21:08:49;100759.09;;;8.15;100.00
31096;BME280;17749;51.962;8.560;2022-11-25T21:11:17;100762.63;;;8.14;100.00
31096;BME280;17749;51.962;8.560;2022-11-25T21:13:45;100772.38;;;8.12;100.00
31096;BME280;17749;51.962;8.560;2022-11-25T21:16:13;100767.94;;;8.14;100.00
31096;BME280;17749;51.962;8.560;2022-11-25T21:18:40;100771.50;;;8.13;100.00
31096;BME280;17749;51.962;8.560;2022-11-25T21:21:26;100778.53;;;8.14;100.00
31096;BME280;17749;51.962;8.560;2022-11-25T21:23:54;100782.97;;;8.13;100.00
31096;BME280;17749;51.962;8.560;2022-11-25T21:26:24;100789.16;;;8.14;100.00
31096;BME280;17749;51.962;8.560;2022-11-25T21:28:52;100795.31;;;8.15;100.00
